Time,TemperatureF,DewpointF,PressureIn,WindDirection,WindDirectionDegrees,WindSpeedMPH,WindSpeedGustMPH,Humidity,HourlyPrecipIn,Conditions,Clouds,dailyrainin,SolarRadiationWatts/m^2,SoftwareType,DateUTC
2013-01-13 00:03:00,69.0,62.0,-100.00,SSE,167,11.0,23.0,79,0.00,,,0.01,0.000000,,2013-01-13 06:03:00,
2013-01-13 00:12:00,69.0,62.0,-100.00,SSE,167,11.0,23.0,79,0.00,,,0.01,0.000000,,2013-01-13 06:12:00,
2013-01-13 00:22:00,69.0,62.0,-100.00,SSE,167,11.0,23.0,79,0.00,,,0.01,0.000000,,2013-01-13 06:22:00,
2013-01-13 00:52:00,69.0,62.0,-100.00,South,172,9.0,21.0,78,0.00,,,0.01,0.000000,,2013-01-13 06:52:00,
2013-01-13 01:02:00,69.0,62.0,-100.00,South,172,9.0,21.0,78,0.00,,,0.01,0.000000,,2013-01-13 07:02:00,
2013-01-13 01:12:00,69.0,62.0,-100.00,South,172,9.0,21.0,78,0.00,,,0.01,0.000000,,2013-01-13 07:12:00,
2013-01-13 01:22:00,69.0,62.0,-100.00,South,172,9.0,21.0,78,0.00,,,0.01,0.000000,,2013-01-13 07:22:00,
2013-01-13 01:53:00,69.0,61.0,-100.00,South,172,11.0,21.0,77,0.00,,,0.01,0.000000,,2013-01-13 07:53:00,
2013-01-13 02:02:00,69.0,61.0,-100.00,South,172,11.0,21.0,77,0.00,,,0.01,0.000000,,2013-01-13 08:02:00,
2013-01-13 02:12:00,69.0,61.0,-100.00,South,172,11.0,21.0,77,0.00,,,0.01,0.000000,,2013-01-13 08:12:00,
2013-01-13 02:22:00,69.0,61.0,-100.00,South,172,11.0,21.0,77,0.00,,,0.01,0.000000,,2013-01-13 08:22:00,
2013-01-13 02:53:00,69.0,62.0,-100.00,South,187,9.0,24.0,78,0.00,,,0.01,0.000000,,2013-01-13 08:53:00,
2013-01-13 03:02:00,69.0,62.0,-100.00,South,187,9.0,24.0,78,0.00,,,0.01,0.000000,,2013-01-13 09:02:00,
2013-01-13 03:12:00,69.0,62.0,-100.00,South,187,9.0,24.0,78,0.00,,,0.01,0.000000,,2013-01-13 09:12:00,
2013-01-13 03:22:00,69.0,62.0,-100.00,South,187,9.0,24.0,78,0.00,,,0.01,0.000000,,2013-01-13 09:22:00,
2013-01-13 03:52:00,61.0,60.0,-100.00,West,261,5.0,20.0,97,0.51,,,0.52,0.000000,,2013-01-13 09:52:00,
2013-01-13 04:02:00,61.0,60.0,-100.00,West,261,5.0,20.0,97,0.51,,,0.52,0.000000,,2013-01-13 10:02:00,
2013-01-13 04:12:00,61.0,60.0,-100.00,West,261,5.0,20.0,97,0.51,,,0.52,0.000000,,2013-01-13 10:12:00,
2013-01-13 04:22:00,61.0,60.0,-100.00,West,261,5.0,20.0,97,0.51,,,0.52,0.000000,,2013-01-13 10:22:00,
2013-01-13 04:53:00,57.0,56.0,-100.00,WNW,287,6.0,12.0,96,0.18,,,0.70,0.000000,,2013-01-13 10:53:00,
2013-01-13 05:02:00,57.0,56.0,-100.00,WNW,287,6.0,12.0,96,0.18,,,0.70,0.000000,,2013-01-13 11:02:00,
2013-01-13 05:12:00,57.0,56.0,-100.00,WNW,287,6.0,12.0,96,0.18,,,0.70,0.000000,,2013-01-13 11:12:00,
2013-01-13 05:22:00,57.0,56.0,-100.00,WNW,287,6.0,12.0,96,0.18,,,0.70,0.000000,,2013-01-13 11:22:00,
2013-01-13 05:53:00,48.0,47.0,-100.00,NNW,335,1.0,12.0,98,0.21,,,0.90,0.000000,,2013-01-13 11:53:00,
2013-01-13 06:03:00,48.0,47.0,-100.00,NNW,335,1.0,12.0,98,0.21,,,0.90,0.000000,,2013-01-13 12:03:00,
2013-01-13 06:12:00,48.0,47.0,-100.00,NNW,335,1.0,12.0,98,0.21,,,0.90,0.000000,,2013-01-13 12:12:00,
2013-01-13 06:22:00,48.0,47.0,-100.00,NNW,335,1.0,12.0,98,0.21,,,0.90,0.000000,,2013-01-13 12:22:00,
2013-01-13 06:53:00,50.0,50.0,-100.00,ESE,102,3.0,5.0,99,0.16,,,1.06,0.000000,,2013-01-13 12:53:00,
2013-01-13 07:03:00,50.0,50.0,-100.00,ESE,102,3.0,5.0,99,0.16,,,1.06,0.000000,,2013-01-13 13:03:00,
2013-01-13 07:12:00,50.0,50.0,-100.00,ESE,102,3.0,5.0,99,0.16,,,1.06,0.000000,,2013-01-13 13:12:00,
2013-01-13 07:22:00,50.0,50.0,-100.00,ESE,102,3.0,5.0,99,0.16,,,1.06,0.000000,,2013-01-13 13:22:00,
2013-01-13 07:53:00,49.0,49.0,-100.00,NW,310,6.0,17.0,100,0.19,,,1.25,0.000000,,2013-01-13 13:53:00,
2013-01-13 08:03:00,49.0,49.0,-100.00,NW,310,6.0,17.0,100,0.19,,,1.25,0.000000,,2013-01-13 14:03:00,
2013-01-13 08:12:00,49.0,49.0,-100.00,NW,310,6.0,17.0,100,0.19,,,1.25,0.000000,,2013-01-13 14:12:00,
2013-01-13 08:22:00,49.0,49.0,-100.00,NW,310,6.0,17.0,100,0.19,,,1.25,0.000000,,2013-01-13 14:22:00,
2013-01-13 08:53:00,47.0,47.0,-100.00,NW,311,4.0,8.0,99,0.07,,,1.32,7.000000,,2013-01-13 14:53:00,
2013-01-13 09:03:00,47.0,47.0,-100.00,NW,311,4.0,8.0,99,0.07,,,1.32,7.000000,,2013-01-13 15:03:00,
2013-01-13 09:12:00,47.0,47.0,-100.00,NW,311,4.0,8.0,99,0.07,,,1.32,7.000000,,2013-01-13 15:12:00,
2013-01-13 09:23:00,47.0,47.0,-100.00,NW,311,4.0,8.0,99,0.07,,,1.32,7.000000,,2013-01-13 15:23:00,
2013-01-13 09:53:00,44.0,43.0,-100.00,NNW,333,5.0,11.0,97,0.18,,,1.50,8.000000,,2013-01-13 15:53:00,
2013-01-13 10:03:00,44.0,43.0,-100.00,NNW,333,5.0,11.0,97,0.18,,,1.50,8.000000,,2013-01-13 16:03:00,
2013-01-13 10:12:00,44.0,43.0,-100.00,NNW,333,5.0,11.0,97,0.18,,,1.50,8.000000,,2013-01-13 16:12:00,
2013-01-13 10:23:00,44.0,43.0,-100.00,NNW,333,5.0,11.0,97,0.18,,,1.50,8.000000,,2013-01-13 16:23:00,
2013-01-13 10:53:00,41.0,40.0,-100.00,NE,37,5.0,12.0,97,0.32,,,1.82,10.000000,,2013-01-13 16:53:00,
2013-01-13 11:03:00,41.0,40.0,-100.00,NE,37,5.0,12.0,97,0.32,,,1.82,10.000000,,2013-01-13 17:03:00,
2013-01-13 11:12:00,41.0,40.0,-100.00,NE,37,5.0,12.0,97,0.32,,,1.82,10.000000,,2013-01-13 17:12:00,
2013-01-13 11:22:00,41.0,40.0,-100.00,NE,37,5.0,12.0,97,0.32,,,1.82,10.000000,,2013-01-13 17:22:00,
2013-01-13 11:53:00,40.0,39.0,-100.00,NNW,329,4.0,12.0,96,0.07,,,1.89,45.000000,,2013-01-13 17:53:00,
2013-01-13 12:03:00,40.0,39.0,-100.00,NNW,329,4.0,12.0,96,0.07,,,1.89,45.000000,,2013-01-13 18:03:00,
2013-01-13 12:12:00,40.0,39.0,-100.00,NNW,329,4.0,12.0,96,0.07,,,1.89,45.000000,,2013-01-13 18:12:00,
2013-01-13 12:23:00,40.0,39.0,-100.00,NNW,329,4.0,12.0,96,0.07,,,1.89,45.000000,,2013-01-13 18:23:00,
2013-01-13 12:53:00,40.0,39.0,-100.00,NW,321,5.0,11.0,97,0.19,,,2.08,35.000000,,2013-01-13 18:53:00,
2013-01-13 13:03:00,40.0,39.0,-100.00,NW,321,5.0,11.0,97,0.19,,,2.08,35.000000,,2013-01-13 19:03:00,
2013-01-13 13:12:00,40.0,39.0,-100.00,NW,321,5.0,11.0,97,0.19,,,2.08,35.000000,,2013-01-13 19:12:00,
2013-01-13 13:22:00,40.0,39.0,-100.00,NW,321,5.0,11.0,97,0.19,,,2.08,35.000000,,2013-01-13 19:22:00,
2013-01-13 13:53:00,39.0,38.0,-100.00,WNW,297,5.0,10.0,97,0.16,,,2.24,33.000000,,2013-01-13 19:53:00,
2013-01-13 14:03:00,39.0,38.0,-100.00,WNW,297,5.0,10.0,97,0.16,,,2.24,33.000000,,2013-01-13 20:03:00,
2013-01-13 14:12:00,39.0,38.0,-100.00,WNW,297,5.0,10.0,97,0.16,,,2.24,33.000000,,2013-01-13 20:12:00,
2013-01-13 14:22:00,39.0,38.0,-100.00,WNW,297,5.0,10.0,97,0.16,,,2.24,33.000000,,2013-01-13 20:22:00,
2013-01-13 14:53:00,37.0,35.0,-100.00,NW,323,8.0,16.0,94,0.25,,,2.49,18.000000,,2013-01-13 20:53:00,
2013-01-13 15:03:00,37.0,35.0,-100.00,NW,323,8.0,16.0,94,0.25,,,2.49,18.000000,,2013-01-13 21:03:00,
2013-01-13 15:12:00,37.0,35.0,-100.00,NW,323,8.0,16.0,94,0.25,,,2.49,18.000000,,2013-01-13 21:12:00,
2013-01-13 15:23:00,37.0,35.0,-100.00,NW,323,8.0,16.0,94,0.25,,,2.49,18.000000,,2013-01-13 21:23:00,
2013-01-13 15:53:00,35.0,33.0,-100.00,NW,312,7.0,15.0,93,0.03,,,2.52,32.000000,,2013-01-13 21:53:00,
2013-01-13 16:02:00,35.0,33.0,-100.00,NW,312,7.0,15.0,93,0.03,,,2.52,32.000000,,2013-01-13 22:02:00,
2013-01-13 16:12:00,35.0,33.0,-100.00,NW,312,7.0,15.0,93,0.03,,,2.52,32.000000,,2013-01-13 22:12:00,
2013-01-13 16:22:00,35.0,33.0,-100.00,NW,312,7.0,15.0,93,0.03,,,2.52,32.000000,,2013-01-13 22:22:00,
2013-01-13 16:53:00,34.0,32.0,-100.00,NW,308,7.0,16.0,94,0.02,,,2.54,14.000000,,2013-01-13 22:53:00,
2013-01-13 17:02:00,34.0,32.0,-100.00,NW,308,7.0,16.0,94,0.02,,,2.54,14.000000,,2013-01-13 23:02:00,
2013-01-13 17:12:00,34.0,32.0,-100.00,NW,308,7.0,16.0,94,0.02,,,2.54,14.000000,,2013-01-13 23:12:00,
2013-01-13 17:22:00,34.0,32.0,-100.00,NW,308,7.0,16.0,94,0.02,,,2.54,14.000000,,2013-01-13 23:22:00,
2013-01-13 17:53:00,33.0,31.0,-100.00,NW,311,7.0,18.0,93,0.01,,,2.55,6.000000,,2013-01-13 23:53:00,
2013-01-13 18:03:00,33.0,31.0,-100.00,NW,311,7.0,18.0,93,0.01,,,2.55,6.000000,,2013-01-14 00:03:00,
2013-01-13 18:12:00,33.0,31.0,-100.00,NW,311,7.0,18.0,93,0.01,,,2.55,6.000000,,2013-01-14 00:12:00,
2013-01-13 18:22:00,33.0,31.0,-100.00,NW,311,7.0,18.0,93,0.01,,,2.55,6.000000,,2013-01-14 00:22:00,
2013-01-13 18:53:00,33.0,31.0,-100.00,NW,324,5.0,12.0,93,0.00,,,2.55,0.000000,,2013-01-14 00:53:00,
2013-01-13 19:03:00,33.0,31.0,-100.00,NW,324,5.0,12.0,93,0.00,,,2.55,0.000000,,2013-01-14 01:03:00,
2013-01-13 19:12:00,33.0,31.0,-100.00,NW,324,5.0,12.0,93,0.00,,,2.55,0.000000,,2013-01-14 01:12:00,
2013-01-13 19:22:00,33.0,31.0,-100.00,NW,324,5.0,12.0,93,0.00,,,2.55,0.000000,,2013-01-14 01:22:00,
2013-01-13 19:53:00,33.0,31.0,-100.00,NW,306,6.0,10.0,94,0.00,,,2.55,0.000000,,2013-01-14 01:53:00,
2013-01-13 20:03:00,33.0,31.0,-100.00,NW,306,6.0,10.0,94,0.00,,,2.55,0.000000,,2013-01-14 02:03:00,
2013-01-13 20:12:00,33.0,31.0,-100.00,NW,306,6.0,10.0,94,0.00,,,2.55,0.000000,,2013-01-14 02:12:00,
2013-01-13 20:22:00,33.0,31.0,-100.00,NW,306,6.0,10.0,94,0.00,,,2.55,0.000000,,2013-01-14 02:22:00,
2013-01-13 20:53:00,32.0,29.0,-100.00,NW,323,5.0,13.0,90,0.00,,,2.55,0.000000,,2013-01-14 02:53:00,
2013-01-13 21:02:00,32.0,29.0,-100.00,NW,323,5.0,13.0,90,0.00,,,2.55,0.000000,,2013-01-14 03:02:00,
2013-01-13 21:12:00,32.0,29.0,-100.00,NW,323,5.0,13.0,90,0.00,,,2.55,0.000000,,2013-01-14 03:12:00,
2013-01-13 21:22:00,32.0,29.0,-100.00,NW,323,5.0,13.0,90,0.00,,,2.55,0.000000,,2013-01-14 03:22:00,
2013-01-13 21:53:00,30.0,26.0,-100.00,NNW,341,4.0,10.0,84,0.00,,,2.55,0.000000,,2013-01-14 03:53:00,
2013-01-13 22:02:00,30.0,26.0,-100.00,NNW,341,4.0,10.0,84,0.00,,,2.55,0.000000,,2013-01-14 04:02:00,
2013-01-13 22:12:00,30.0,26.0,-100.00,NNW,341,4.0,10.0,84,0.00,,,2.55,0.000000,,2013-01-14 04:12:00,
2013-01-13 22:22:00,30.0,26.0,-100.00,NNW,341,4.0,10.0,84,0.00,,,2.55,0.000000,,2013-01-14 04:22:00,
2013-01-13 22:53:00,29.0,25.0,-100.00,North,349,4.0,8.0,85,0.00,,,2.55,0.000000,,2013-01-14 04:53:00,
2013-01-13 23:04:00,29.0,25.0,-100.00,North,349,4.0,8.0,85,0.00,,,2.55,0.000000,,2013-01-14 05:04:00,
2013-01-13 23:12:00,29.0,25.0,-100.00,North,349,4.0,8.0,85,0.00,,,2.55,0.000000,,2013-01-14 05:12:00,
2013-01-13 23:22:00,29.0,25.0,-100.00,North,349,4.0,8.0,85,0.00,,,2.55,0.000000,,2013-01-14 05:22:00,
2013-01-13 23:53:00,28.0,24.0,-100.00,North,355,4.0,10.0,84,0.00,,,2.55,0.000000,,2013-01-14 05:53:00,